Home > Products > Valid Products > MTR

000
SAUS45 KTWC 021653
MTRSAD
METAR KSAD 021651Z AUTO 24007KT 10SM CLR 27/19 A3008 RMK AO2 SLP136
T02670189





000
SAUS45 KTWC 021552
MTRSAD
METAR KSAD 021551Z AUTO 33005KT 10SM CLR 26/18 A3007 RMK AO2 SLP133
T02560183





000
SAUS45 KTWC 021552
MTRSAD
METAR KSAD 021551Z AUTO 33005KT 10SM CLR 26/18 A3007 RMK AO2 SLP133
T02560183





000
SAUS45 KTWC 021452
MTRSAD
METAR KSAD 021451Z AUTO 00000KT 10SM CLR 23/20 A3008 RMK AO2 SLP138
T02330200 53010





000
SAUS45 KTWC 021452
MTRSAD
METAR KSAD 021451Z AUTO 00000KT 10SM CLR 23/20 A3008 RMK AO2 SLP138
T02330200 53010





000
SAUS45 KTWC 021352
MTRSAD
METAR KSAD 021351Z AUTO 00000KT 10SM CLR 23/19 A3007 RMK AO2 SLP134
T02280194





000
SAUS45 KTWC 021252
MTRSAD
METAR KSAD 021251Z AUTO 00000KT 10SM CLR 22/19 A3006 RMK AO2 SLP129
T02220194





000
SAUS45 KTWC 021153
MTRSAD
METAR KSAD 021151Z AUTO 00000KT 10SM CLR 22/20 A3005 RMK AO2 SLP124
T02170200 10244 20217 53004





000
SAUS45 KTWC 021153
MTRSAD
METAR KSAD 021151Z AUTO 00000KT 10SM CLR 22/20 A3005 RMK AO2 SLP124
T02170200 10244 20217 53004





000
SAUS45 KTWC 021052
MTRSAD
METAR KSAD 021051Z AUTO 26003KT 10SM CLR 22/21 A3004 RMK AO2 SLP120
T02220206





000
SAUS45 KTWC 021052
MTRSAD
METAR KSAD 021051Z AUTO 26003KT 10SM CLR 22/21 A3004 RMK AO2 SLP120
T02220206





000
SAUS45 KTWC 020952
MTRSAD
METAR KSAD 020951Z AUTO 00000KT 10SM CLR 23/20 A3004 RMK AO2 SLP119
T02280200





000
SAUS45 KTWC 020952
MTRSAD
METAR KSAD 020951Z AUTO 00000KT 10SM CLR 23/20 A3004 RMK AO2 SLP119
T02280200





000
SAUS45 KTWC 020852
MTRSAD
METAR KSAD 020851Z AUTO 00000KT 10SM CLR 23/19 A3004 RMK AO2 SLP119
T02280194 50004





000
SAUS45 KTWC 020752
MTRSAD
METAR KSAD 020751Z AUTO 05005KT 10SM CLR 23/20 A3004 RMK AO2 SLP123
T02280200





000
SAUS45 KTWC 020653
MTRSAD
METAR KSAD 020651Z AUTO 13004KT 10SM CLR 23/20 A3004 RMK AO2 SLP124
T02330200 403720194





000
SAUS45 KTWC 020653
MTRSAD
METAR KSAD 020651Z AUTO 13004KT 10SM CLR 23/20 A3004 RMK AO2 SLP124
T02330200 403720194





000
SAUS45 KTWC 020552
MTRSAD
METAR KSAD 020551Z AUTO 00000KT 10SM CLR 24/20 A3002 RMK AO2 SLP119
T02390200 10306 20239 50007





000
SAUS45 KTWC 020552
MTRSAD
METAR KSAD 020551Z AUTO 00000KT 10SM CLR 24/20 A3002 RMK AO2 SLP119
T02390200 10306 20239 50007





000
SAUS45 KTWC 020452
MTRSAD
METAR KSAD 020451Z AUTO 04003KT 10SM CLR 24/20 A3003 RMK AO2 SLP121
T02440200





000
SAUS45 KTWC 020352
MTRSAD
METAR KSAD 020351Z AUTO 00000KT 10SM CLR 26/19 A3003 RMK AO2 SLP123
T02560194





000
SAUS45 KTWC 020252
MTRSAD
METAR KSAD 020251Z AUTO 31005KT 10SM CLR 27/18 A3000 RMK AO2 SLP112
T02670183 53010





000
SAUS45 KTWC 020252
MTRSAD
METAR KSAD 020251Z AUTO 31005KT 10SM CLR 27/18 A3000 RMK AO2 SLP112
T02670183 53010





000
SAUS45 KTWC 020153
MTRSAD
METAR KSAD 020151Z AUTO 32004KT 10SM CLR 27/18 A2997 RMK AO2 SLP103
T02720178





000
SAUS45 KTWC 020052
MTRSAD
METAR KSAD 020051Z AUTO 28005KT 10SM CLR 28/17 A2998 RMK AO2 SLP102
T02830167





000
SAUS45 KTWC 012353
MTRSAD
METAR KSAD 012351Z AUTO 30004KT 10SM CLR 31/16 A2997 RMK AO2 SLP096
T03060161 10317 20244 56018





000
SAUS45 KTWC 012252
MTRSAD
METAR KSAD 012251Z AUTO 31005KT 10SM CLR 31/16 A2998 RMK AO2 SLP101
T03110156





000
SAUS45 KTWC 012252
MTRSAD
METAR KSAD 012251Z AUTO 31005KT 10SM CLR 31/16 A2998 RMK AO2 SLP101
T03110156





000
SAUS45 KTWC 012152
MTRSAD
METAR KSAD 012151Z AUTO 00000KT 10SM CLR 31/15 A3000 RMK AO2 SLP107
T03060150





000
SAUS45 KTWC 012052
MTRSAD
METAR KSAD 012051Z AUTO VRB03KT 10SM CLR 29/18 A3003 RMK AO2 SLP118
T02940183 56017





000
SAUS45 KTWC 011952
MTRSAD
METAR KSAD 011951Z AUTO 00000KT 10SM CLR 27/18 A3004 RMK AO2 SLP128
T02670183





000
SAUS45 KTWC 011952
MTRSAD
METAR KSAD 011951Z AUTO 00000KT 10SM CLR 27/18 A3004 RMK AO2 SLP128
T02670183





000
SAUS45 KTWC 011852
MTRSAD
METAR KSAD 011851Z AUTO 00000KT 10SM CLR 26/18 A3006 RMK AO2 SLP133
T02560178





000
SAUS45 KTWC 011753
MTRSAD
METAR KSAD 011751Z AUTO 00000KT 10SM CLR 24/18 A3008 RMK AO2 SLP140
T02440178 10244 20200 50001





000
SAUS45 KTWC 011753
MTRSAD
METAR KSAD 011751Z AUTO 00000KT 10SM CLR 24/18 A3008 RMK AO2 SLP140
T02440178 10244 20200 50001





000
SAUS45 KTWC 011652
MTRSAD
METAR KSAD 011651Z AUTO 00000KT 10SM CLR 23/18 A3009 RMK AO2 SLP145
T02280183





000
SAUS45 KTWC 011552
MTRSAD
METAR KSAD 011551Z AUTO 29006KT 10SM CLR 22/18 A3009 RMK AO2 SLP147
T02220183





000
SAUS45 KTWC 011452
MTRSAD
METAR KSAD 011451Z AUTO 27004KT 10SM CLR 21/19 A3008 RMK AO2 SLP140
T02110189 53011





000
SAUS45 KTWC 011452
MTRSAD
METAR KSAD 011451Z AUTO 27004KT 10SM CLR 21/19 A3008 RMK AO2 SLP140
T02110189 53011





000
SAUS45 KTWC 011353
MTRSAD
METAR KSAD 011351Z AUTO 23003KT 10SM CLR 21/19 A3007 RMK AO2 SLP131
T02060189





000
SAUS45 KTWC 011252
MTRSAD
METAR KSAD 011251Z AUTO 04003KT 10SM CLR 21/19 A3004 RMK AO2 SLP117
T02060189 $





000
SAUS45 KTWC 011252
MTRSAD
METAR KSAD 011251Z AUTO 04003KT 10SM CLR 21/19 A3004 RMK AO2 SLP117
T02060189 $





000
SAUS45 KTWC 011152
MTRSAD
METAR KSAD 011151Z AUTO 00000KT 10SM CLR 21/19 A3004 RMK AO2 SLP117
6//// 7//// T02060189 10228 20194 57006 $





000
SAUS45 KTWC 011152
MTRSAD
METAR KSAD 011151Z AUTO 00000KT 10SM CLR 21/19 A3004 RMK AO2 SLP117
6//// 7//// T02060189 10228 20194 57006 $





000
SAUS45 KTWC 011053
MTRSAD
METAR KSAD 011051Z AUTO 00000KT 10SM CLR 20/19 A3004 RMK AO2 SLP119
T02000189 $





000
SAUS45 KTWC 010952
MTRSAD
METAR KSAD 010951Z AUTO 27009KT 10SM SCT008 BKN095 BKN120 20/19
A3005 RMK AO2 RAB36E50 SLP123 P0000 T02000189 $





000
SAUS45 KTWC 010938
MTRSAD
SPECI KSAD 010937Z AUTO 24012KT 10SM -RA FEW008 BKN110 19/18 A3005
RMK AO2 RAB36 P0000 T01940183 $





000
SAUS45 KTWC 010852
MTRSAD
METAR KSAD 010851Z AUTO 32009G21KT 10SM FEW070 BKN090 OVC110 21/19
A3006 RMK AO2 PK WND 32029/0819 RAE39 SLP125 P0002 6//// T02060189 $





000
SAUS45 KTWC 010752
MTRSAD
METAR KSAD 010751Z AUTO 30017KT 10SM -RA OVC110 20/19 A3008 RMK AO2
RAB10 SLP134 P0001 T02000189 $





000
SAUS45 KTWC 010452
MTRSAD
METAR KSAD 010451Z AUTO 01006KT 10SM -RA OVC110 22/20 A3011 RMK AO2
SLP144 P0002 T02220200 TSNO $





000
SAUS45 KTWC 010405
MTRSAD
SPECI KSAD 010404Z AUTO 30004KT 9SM -RA SCT100 BKN120 23/20 A3012
RMK AO2 LTG DSNT S-W P0000 T02280200 $





000
SAUS45 KTWC 010352
MTRSAD
METAR KSAD 010351Z AUTO 22005KT 10SM VCTS -RA BKN100 OVC120 23/19
A3011 RMK AO2 LTG DSNT ALQDS RAB20 SLP145 P0001 T02280189 $





000
SAUS45 KTWC 010350
MTRSAD
SPECI KSAD 010349Z AUTO 24003KT 10SM VCTS -RA SCT095 BKN120 23/19
A3011 RMK AO2 LTG DSNT ALQDS RAB20 PRESRR P0001 $





000
SAUS45 KTWC 010350
MTRSAD
SPECI KSAD 010349Z AUTO 24003KT 10SM VCTS -RA SCT095 BKN120 23/19
A3011 RMK AO2 LTG DSNT ALQDS RAB20 PRESRR P0001 $





000
SAUS45 KTWC 010252
MTRSAD
METAR KSAD 010251Z AUTO 24009KT 10SM FEW065 SCT110 22/20 A3001 RMK
AO2 LTG DSNT ALQDS RAB0155E43 TSE08 SLP118 P0006 6//// T02220200 $





000
SAUS45 KTWC 010231
MTRSAD
SPECI KSAD 010230Z AUTO 00000KT 10SM -RA FEW065 SCT095 BKN120 22/20
A3000 RMK AO2 LTG DSNT ALQDS RAB0155 TSE08 P0006 T02220200 $





000
SAUS45 KTWC 010215
MTRSAD
SPECI KSAD 010214Z AUTO 13010KT 10SM VCTS -RA 22/19 A3000 RMK AO2
LTG DSNT ALQDS RAB0155 TSE08 P0005 T02170194 $





000
SAUS45 KTWC 010215
MTRSAD
SPECI KSAD 010214Z AUTO 13010KT 10SM VCTS -RA 22/19 A3000 RMK AO2
LTG DSNT ALQDS RAB0155 TSE08 P0005 T02170194 $





000
SAUS45 KTWC 010201
MTRSAD
SPECI KSAD 010200Z AUTO 17012KT TSRA 21/17 A3001 RMK AO2 LTG DSNT
ALQDS RAB0155 P0005 T02110167 $





000
SAUS45 KTWC 010119
MTRSAD
SPECI KSAD 010118Z AUTO 07012KT 4SM +RA SCT041 BKN070 OVC110 22/18
A2996 RMK AO2 WSHFT 0058 P0022 T02220183 TSNO





000
SAUS45 KTWC 010109
MTRSAD
SPECI KSAD 010108Z AUTO 11012KT 3SM +RA SCT043 BKN075 OVC110 23/17
A2997 RMK AO2 P0019 T02280167 TSNO





000
SAUS45 KTWC 010053
MTRSAD
METAR KSAD 010051Z AUTO 17014G30KT 1SM +RA SCT046 BKN070 OVC085
24/17 A2999 RMK AO2 PK WND 20036/0040 RAB21 TSB18E44 SLP109 P0013
T02390167 TSNO





000
SAUS45 KTWC 010049
MTRSAD
SPECI KSAD 010048Z AUTO 19018G36KT 3/4SM +RA FEW050 OVC075 24/17
A2999 RMK AO2 PK WND 20036/0040 RAB21 TSB18E44 P0010 TSNO





000
SAUS45 KTWC 010041
MTRSAD
SPECI KSAD 010040Z AUTO 20030G36KT 1 3/4SM +TSRA BKN075 OVC090 24/19
A2999 RMK AO2 PK WND 20036/0040 LTG DSNT ALQDS RAB21 TSB18 PRESRR
P0002 T02390189





000
SAUS45 KTWC 010025
MTRSAD
SPECI KSAD 010024Z AUTO 19008KT 10SM -TSRA OVC090 28/16 A2996 RMK
AO2 LTG DSNT ALQDS RAB21 TSB18 P0000 T02830161





000
SAUS45 KTWC 312352
MTRSAD
METAR KSAD 312351Z AUTO VRB03KT 10SM VCTS BKN090 31/14 A2993 RMK AO2
LTG DSNT ALQDS TSB16E31 SLP082 T03060144 10372 20306 55006





000
SAUS45 KTWC 312338
MTRSAD
SPECI KSAD 312337Z AUTO 27012G22KT 10SM VCTS BKN090 31/15 A2992 RMK
AO2 LTG DSNT ALQDS TSB16E31 T03060150





000
SAUS45 KTWC 312317
MTRSAD
SPECI KSAD 312316Z AUTO 29008KT 10SM TS CLR 34/13 A2991 RMK AO2 LTG
DSNT ALQDS TSB16 T03440133





000
SAUS45 KTWC 312253
MTRSAD
METAR KSAD 312251Z AUTO 00000KT 10SM CLR 34/12 A2991 RMK AO2 LTG
DSNT E AND SW AND W SLP069 T03440117





000
SAUS45 KTWC 312153
MTRSAD
METAR KSAD 312151Z AUTO 20006KT 10SM CLR 35/12 A2992 RMK AO2 LTG
DSNT NE AND E AND W SLP072 T03500122





000
SAUS45 KTWC 312052
MTRSAD
METAR KSAD 312051Z AUTO VRB06KT 10SM CLR 36/13 A2995 RMK AO2 LTG
DSNT N AND NE SLP079 T03560128 58024





000
SAUS45 KTWC 312052
MTRSAD
METAR KSAD 312051Z AUTO VRB06KT 10SM CLR 36/13 A2995 RMK AO2 LTG
DSNT N AND NE SLP079 T03560128 58024





000
SAUS45 KTWC 311952
MTRSAD
METAR KSAD 311951Z AUTO 26007KT 210V280 10SM CLR 34/14 A2998 RMK AO2
LTG DSNT N SLP089 T03390139





000
SAUS45 KTWC 311852
MTRSAD
METAR KSAD 311851Z AUTO 26007KT 10SM CLR 34/14 A3001 RMK AO2 LTG
DSNT SW SLP099 T03390139





000
SAUS45 KTWC 311752
MTRSAD
METAR KSAD 311751Z AUTO VRB06KT 10SM CLR 32/14 A3003 RMK AO2 LTG
DSNT N SLP107 T03220144 10328 20217 58003





000
SAUS45 KTWC 311752
MTRSAD
METAR KSAD 311751Z AUTO VRB06KT 10SM CLR 32/14 A3003 RMK AO2 LTG
DSNT N SLP107 T03220144 10328 20217 58003





000
SAUS45 KTWC 311652
MTRSAD
METAR KSAD 311651Z AUTO 31011KT 10SM CLR 31/14 A3005 RMK AO2 SLP117
T03060144





000
SAUS45 KTWC 311552
MTRSAD
METAR KSAD 311551Z AUTO 28006KT 10SM CLR 29/15 A3006 RMK AO2 SLP119
T02890150





000
SAUS45 KTWC 311452
MTRSAD
METAR KSAD 311451Z AUTO 14005KT 10SM CLR 26/16 A3004 RMK AO2 SLP114
T02560156 53014





000
SAUS45 KTWC 311452
MTRSAD
METAR KSAD 311451Z AUTO 14005KT 10SM CLR 26/16 A3004 RMK AO2 SLP114
T02560156 53014





000
SAUS45 KTWC 311352
MTRSAD
METAR KSAD 311351Z AUTO 15007KT 10SM CLR 23/16 A3002 RMK AO2 SLP111
T02330161





000
SAUS45 KTWC 311252
MTRSAD
METAR KSAD 311251Z AUTO 14003KT 10SM CLR 22/16 A3000 RMK AO2 SLP103
T02220161





000
SAUS45 KTWC 311252
MTRSAD
METAR KSAD 311251Z AUTO 14003KT 10SM CLR 22/16 A3000 RMK AO2 SLP103
T02220161





000
SAUS45 KTWC 311152
MTRSAD
METAR KSAD 311151Z AUTO 15003KT 10SM CLR 22/16 A2999 RMK AO2 SLP099
T02220161 10289 20222 51008





000
SAUS45 KTWC 311152
MTRSAD
METAR KSAD 311151Z AUTO 15003KT 10SM CLR 22/16 A2999 RMK AO2 SLP099
T02220161 10289 20222 51008





000
SAUS45 KTWC 311052
MTRSAD
METAR KSAD 311051Z AUTO 00000KT 10SM CLR 23/16 A2999 RMK AO2 SLP095
T02280156





000
SAUS45 KTWC 310952
MTRSAD
METAR KSAD 310951Z AUTO 00000KT 10SM CLR 24/15 A2998 RMK AO2 SLP091
T02440150





000
SAUS45 KTWC 310852
MTRSAD
METAR KSAD 310851Z AUTO 22004KT 10SM CLR 26/14 A2997 RMK AO2 SLP086
T02610144 53005





000
SAUS45 KTWC 310752
MTRSAD
METAR KSAD 310751Z AUTO 12007KT 10SM CLR 27/14 A2996 RMK AO2 SLP082
T02720139





000
SAUS45 KTWC 310752
MTRSAD
METAR KSAD 310751Z AUTO 12007KT 10SM CLR 27/14 A2996 RMK AO2 SLP082
T02720139





000
SAUS45 KTWC 310652
MTRSAD
METAR KSAD 310651Z AUTO 13007KT 10SM CLR 28/14 A2996 RMK AO2 SLP084
T02780139 403720217





000
SAUS45 KTWC 310652
MTRSAD
METAR KSAD 310651Z AUTO 13007KT 10SM CLR 28/14 A2996 RMK AO2 SLP084
T02780139 403720217





000
SAUS45 KTWC 310552
MTRSAD
METAR KSAD 310551Z AUTO 12008KT 10SM CLR 29/13 A2995 RMK AO2 SLP083
T02890133 10361 20289 51007





000
SAUS45 KTWC 310552
MTRSAD
METAR KSAD 310551Z AUTO 12008KT 10SM CLR 29/13 A2995 RMK AO2 SLP083
T02890133 10361 20289 51007





000
SAUS45 KTWC 310453
MTRSAD
METAR KSAD 310451Z AUTO 10006KT 10SM CLR 29/13 A2995 RMK AO2 SLP082
T02940133





000
SAUS45 KTWC 310453
MTRSAD
METAR KSAD 310451Z AUTO 10006KT 10SM CLR 29/13 A2995 RMK AO2 SLP082
T02940133





000
SAUS45 KTWC 310353
MTRSAD
METAR KSAD 310351Z AUTO 07005KT 10SM CLR 29/14 A2995 RMK AO2 SLP086
T02940139





000
SAUS45 KTWC 310252
MTRSAD
METAR KSAD 310251Z AUTO 35006KT 10SM CLR 32/12 A2993 RMK AO2 SLP076
T03170117 53008





000
SAUS45 KTWC 310252
MTRSAD
METAR KSAD 310251Z AUTO 35006KT 10SM CLR 32/12 A2993 RMK AO2 SLP076
T03170117 53008





000
SAUS45 KTWC 310152
MTRSAD
METAR KSAD 310151Z AUTO 34008KT 10SM CLR 32/12 A2992 RMK AO2 SLP073
T03220122





000
SAUS45 KTWC 310052
MTRSAD
METAR KSAD 310051Z AUTO 23009KT 10SM FEW100 34/12 A2991 RMK AO2 LTG
DSNT E SLP070 T03390122





000
SAUS45 KTWC 310052
MTRSAD
METAR KSAD 310051Z AUTO 23009KT 10SM FEW100 34/12 A2991 RMK AO2 LTG
DSNT E SLP070 T03390122





000
SAUS45 KTWC 302352
MTRSAD
METAR KSAD 302351Z AUTO 33004KT 10SM CLR 36/11 A2991 RMK AO2 LTG
DSNT SE-SW SLP068 T03560111 10372 20306 56019





000
SAUS45 KTWC 302253
MTRSAD
METAR KSAD 302251Z AUTO 25006KT 10SM CLR 36/12 A2991 RMK AO2 SLP068
T03610117





000
SAUS45 KTWC 302152
MTRSAD
METAR KSAD 302151Z AUTO 18006KT 10SM CLR 36/11 A2993 RMK AO2 SLP075
T03560111





000
SAUS45 KTWC 302152
MTRSAD
METAR KSAD 302151Z AUTO 18006KT 10SM CLR 36/11 A2993 RMK AO2 SLP075
T03560111





000
SAUS45 KTWC 302052
MTRSAD
METAR KSAD 302051Z AUTO 15008KT 10SM CLR 35/12 A2997 RMK AO2 SLP089
T03500122 58031





000
SAUS45 KTWC 301952
MTRSAD
METAR KSAD 301951Z AUTO VRB06KT 10SM CLR 34/12 A3001 RMK AO2 SLP105
T03390117





000
SAUS45 KTWC 301853
MTRSAD
METAR KSAD 301851Z AUTO VRB05KT 10SM CLR 32/13 A3005 RMK AO2 SLP117
T03220128





000
SAUS45 KTWC 301752
MTRSAD
METAR KSAD 301751Z AUTO VRB06KT 10SM CLR 31/13 A3007 RMK AO2 SLP125
T03110133 10311 20217 50003





000
SAUS45 KTWC 301752
MTRSAD
METAR KSAD 301751Z AUTO VRB06KT 10SM CLR 31/13 A3007 RMK AO2 SLP125
T03110133 10311 20217 50003





    US Dept of Commerce
    National Oceanic and Atmospheric Administration
    National Weather Service
    1325 East West Highway
    Silver Spring, MD 20910
    Page Author: NWS Internet Services Team
Disclaimer
Information Quality
Credits
Glossary
Privacy Policy
Freedom of Information Act (FOIA)
About Us
Career Opportunities